createdAt,value
2018-08-10T00:00:54.311Z,99958.08
2018-08-10T00:03:23.216Z,99959.95
2018-08-10T00:05:52.145Z,99960.91
2018-08-10T00:08:21.301Z,99968.53
2018-08-10T00:10:50.227Z,99967.03
2018-08-10T00:13:19.163Z,99977.34
2018-08-10T00:15:48.059Z,99974.77
2018-08-10T00:18:16.992Z,99974.26
2018-08-10T00:20:45.914Z,99985.09
2018-08-10T00:23:14.832Z,99988.09
2018-08-10T00:25:43.794Z,99998.61
2018-08-10T00:28:12.743Z,99999.30
2018-08-10T00:30:41.652Z,99998.72
2018-08-10T00:33:10.618Z,99999.10
2018-08-10T00:35:39.541Z,100004.47
2018-08-10T00:38:08.479Z,100013.39
2018-08-10T00:40:37.453Z,100015.66
2018-08-10T00:43:06.445Z,100014.46
2018-08-10T00:45:35.343Z,100021.55
2018-08-10T00:48:04.283Z,100033.07
2018-08-10T00:50:33.259Z,100041.36
2018-08-10T00:53:02.187Z,100037.88
2018-08-10T00:55:31.100Z,100036.95
2018-08-10T00:58:00.020Z,100034.69
2018-08-10T01:00:28.991Z,100033.28
2018-08-10T01:02:57.925Z,100039.45
2018-08-10T01:05:26.874Z,100043.16
2018-08-10T01:07:55.788Z,100041.63
2018-08-10T01:10:24.735Z,100047.05
2018-08-10T01:12:53.768Z,100047.17
2018-08-10T01:15:22.716Z,100053.66
2018-08-10T01:17:51.702Z,100051.59
2018-08-10T01:20:23.013Z,100056.00
2018-08-10T01:25:50.584Z,100078.38
2018-08-10T01:28:19.564Z,100084.05
2018-08-10T01:30:48.458Z,100082.53
2018-08-10T01:33:17.407Z,100088.70
2018-08-10T01:35:46.401Z,100080.50
2018-08-10T01:38:15.341Z,100079.12
2018-08-10T01:40:44.269Z,100075.70
2018-08-10T01:43:13.228Z,100082.64
2018-08-10T01:45:42.168Z,100079.08
2018-08-10T01:48:11.133Z,100087.14
2018-08-10T01:50:40.107Z,100089.31
2018-08-10T01:53:09.047Z,100098.94
2018-08-10T01:55:37.990Z,100102.75
2018-08-10T01:58:06.927Z,100104.41
2018-08-10T02:00:35.900Z,100103.83
2018-08-10T02:03:04.960Z,100110.11
2018-08-10T02:05:33.880Z,100117.58
2018-08-10T02:08:02.844Z,100120.08
2018-08-10T02:10:31.782Z,100110.95
2018-08-10T02:13:00.734Z,100111.90
2018-08-10T02:15:29.769Z,100119.56
2018-08-10T02:17:58.727Z,100112.59
2018-08-10T02:20:27.671Z,100115.03
2018-08-10T02:22:56.633Z,100108.36
2018-08-10T02:25:25.593Z,100115.71
2018-08-10T02:27:54.547Z,100116.35
2018-08-10T02:30:23.509Z,100111.77
2018-08-10T02:32:52.794Z,100117.00
2018-08-10T02:35:21.795Z,100118.22
2018-08-10T02:37:50.744Z,100105.78
2018-08-10T02:40:21.018Z,100114.61
2018-08-10T02:42:50.739Z,100111.97
2018-08-10T02:45:19.924Z,100120.02
2018-08-10T02:47:49.523Z,100124.31
2018-08-10T02:50:18.493Z,100128.00
2018-08-10T02:52:47.600Z,100125.17
2018-08-10T02:55:16.542Z,100136.62
2018-08-10T02:57:45.478Z,100139.25
2018-08-10T03:00:15.600Z,100141.41
2018-08-10T03:02:45.004Z,100142.68
2018-08-10T03:05:13.989Z,100140.23
2018-08-10T03:07:43.237Z,100131.24
2018-08-10T03:10:13.212Z,100133.83
2018-08-10T03:12:42.182Z,100138.20
2018-08-10T03:15:12.744Z,100140.20
2018-08-10T03:17:41.791Z,100139.64
2018-08-10T03:20:11.152Z,100149.30
2018-08-10T03:22:40.634Z,100165.55
2018-08-10T03:25:10.656Z,100171.30
2018-08-10T03:27:39.660Z,100177.08
2018-08-10T03:30:09.918Z,100181.89
2018-08-10T03:32:38.954Z,100179.61
2018-08-10T03:35:07.896Z,100182.47
2018-08-10T03:37:37.279Z,100189.20
2018-08-10T03:40:08.438Z,100193.30
2018-08-10T03:42:37.371Z,100192.95
2018-08-10T03:45:06.441Z,100187.20
2018-08-10T03:47:35.478Z,100189.94
2018-08-10T03:50:05.453Z,100197.41
2018-08-10T03:52:34.433Z,100204.40
2018-08-10T03:55:04.840Z,100201.03
2018-08-10T03:57:33.783Z,100208.72
2018-08-10T04:00:02.760Z,100215.14
2018-08-10T04:02:31.795Z,100226.21
2018-08-10T04:05:02.019Z,100233.41
2018-08-10T04:07:30.946Z,100243.43
2018-08-10T04:09:59.880Z,100244.95
2018-08-10T04:12:28.886Z,100253.80
2018-08-10T04:14:57.792Z,100257.91
2018-08-10T04:17:27.188Z,100263.58
2018-08-10T04:19:56.399Z,100262.66
2018-08-10T04:22:26.089Z,100260.55
2018-08-10T04:24:54.993Z,100267.10
2018-08-10T04:27:23.943Z,100267.78
2018-08-10T04:29:52.959Z,100275.86
2018-08-10T04:32:21.892Z,100281.02
2018-08-10T04:34:50.851Z,100285.11
2018-08-10T04:37:19.895Z,100295.67
2018-08-10T04:39:49.246Z,100296.55
2018-08-10T04:42:18.275Z,100302.16
2018-08-10T04:44:47.233Z,100303.96
2018-08-10T04:47:16.159Z,100300.70
2018-08-10T04:49:45.110Z,100303.25
2018-08-10T04:52:14.000Z,100311.60
2018-08-10T04:54:42.937Z,100310.23
2018-08-10T04:57:11.870Z,100315.70
2018-08-10T05:00:14.227Z,100308.17
2018-08-10T05:02:43.229Z,100311.46
2018-08-10T05:05:12.216Z,100309.55
2018-08-10T05:07:41.977Z,100321.70
2018-08-10T05:10:11.180Z,100333.91
2018-08-10T05:12:40.674Z,100342.27
2018-08-10T05:15:10.490Z,100339.22
2018-08-10T05:17:39.801Z,100345.33
2018-08-10T05:20:09.970Z,100350.88
2018-08-10T05:22:39.406Z,100359.64
2018-08-10T05:25:08.373Z,100368.14
2018-08-10T05:27:37.572Z,100362.37
2018-08-10T05:30:08.114Z,100373.69
2018-08-10T05:32:37.069Z,100378.33
2018-08-10T05:35:06.815Z,100385.61
2018-08-10T05:37:35.772Z,100386.97
2018-08-10T05:40:06.146Z,100384.09
2018-08-10T05:42:35.141Z,100389.42
2018-08-10T05:45:04.600Z,100388.50
2018-08-10T05:47:33.717Z,100394.05
2018-08-10T05:50:02.663Z,100398.09
2018-08-10T05:52:31.662Z,100413.28
2018-08-10T05:55:00.571Z,100414.91
2018-08-10T05:57:29.777Z,100427.33
2018-08-10T05:59:58.670Z,100431.62
2018-08-10T06:02:27.624Z,100422.45
2018-08-10T06:04:56.627Z,100421.28
2018-08-10T06:07:25.748Z,100416.48
2018-08-10T06:09:54.700Z,100419.70
2018-08-10T06:12:23.835Z,100426.31
2018-08-10T06:14:52.936Z,100437.88
2018-08-10T06:17:21.863Z,100441.77
2018-08-10T06:19:50.880Z,100448.64
2018-08-10T06:22:19.784Z,100452.20
2018-08-10T06:24:48.825Z,100453.70
2018-08-10T06:27:17.809Z,100464.14
2018-08-10T06:29:46.927Z,100466.36
2018-08-10T06:32:15.815Z,100464.79
2018-08-10T06:34:44.829Z,100470.36
2018-08-10T06:37:13.747Z,100469.94
2018-08-10T06:39:42.755Z,100472.13
2018-08-10T06:42:11.622Z,100480.05
2018-08-10T06:44:40.610Z,100488.61
2018-08-10T06:47:09.550Z,100487.05
2018-08-10T06:49:38.540Z,100492.41
2018-08-10T06:52:07.498Z,100503.56
2018-08-10T06:54:36.435Z,100506.06
2018-08-10T06:57:06.149Z,100509.41
2018-08-10T06:59:35.173Z,100515.20
2018-08-10T07:02:04.104Z,100520.41
2018-08-10T07:04:33.057Z,100523.73
2018-08-10T07:07:02.180Z,100534.92
2018-08-10T07:09:31.218Z,100539.50
2018-08-10T07:12:00.438Z,100547.47
2018-08-10T07:14:29.392Z,100553.91
2018-08-10T07:16:58.341Z,100552.22
2018-08-10T07:19:27.400Z,100545.52
2018-08-10T07:21:56.599Z,100548.37
2018-08-10T07:24:25.838Z,100557.33
2018-08-10T07:26:55.056Z,100569.73
2018-08-10T07:29:24.093Z,100565.75
2018-08-10T07:31:53.944Z,100569.28
2018-08-10T07:34:22.955Z,100560.42
2018-08-10T07:36:52.055Z,100551.97
2018-08-10T07:39:21.144Z,100561.69
2018-08-10T07:41:50.134Z,100556.68
2018-08-10T07:44:19.100Z,100553.94
2018-08-10T07:46:48.044Z,100572.98
2018-08-10T07:49:17.010Z,100571.34
2018-08-10T07:51:45.966Z,100575.33
2018-08-10T07:54:14.910Z,100576.36
2018-08-10T07:56:44.028Z,100592.41
2018-08-10T07:59:12.996Z,100587.62
2018-08-10T08:01:41.912Z,100585.20
2018-08-10T08:04:11.310Z,100587.24
2018-08-10T08:06:40.284Z,100591.05
2018-08-10T08:09:11.280Z,100593.77
2018-08-10T08:11:40.279Z,100589.59
2018-08-10T08:14:09.245Z,100597.59
2018-08-10T08:16:38.217Z,100600.70
2018-08-10T08:19:07.188Z,100598.62
2018-08-10T08:21:36.192Z,100594.62
2018-08-10T08:24:05.208Z,100600.44
2018-08-10T08:26:34.276Z,100596.89
2018-08-10T08:29:03.199Z,100595.91
2018-08-10T08:31:32.140Z,100604.07
2018-08-10T08:34:05.023Z,100612.33
2018-08-10T08:36:33.944Z,100616.94
2018-08-10T08:39:13.016Z,100627.69
2018-08-10T08:41:42.108Z,100629.64
2018-08-10T08:44:34.799Z,100636.05
2018-08-10T08:47:05.519Z,100634.72
2018-08-10T08:49:35.328Z,100640.77
2018-08-10T08:52:04.503Z,100640.45
2018-08-10T08:55:09.955Z,100647.76
2018-08-10T08:57:38.904Z,100651.55
2018-08-10T09:00:13.013Z,100652.02
2018-08-10T09:02:42.168Z,100639.86
2018-08-10T09:05:11.123Z,100647.55
2018-08-10T09:07:40.274Z,100653.36
2018-08-10T09:10:17.072Z,100650.50
2018-08-10T09:12:46.162Z,100665.52
2018-08-10T09:15:17.469Z,100653.66
2018-08-10T09:17:46.456Z,100661.78
2018-08-10T09:20:15.480Z,100659.03
2018-08-10T09:22:44.468Z,100660.78
2018-08-10T09:25:16.025Z,100660.04
2018-08-10T09:27:45.099Z,100660.44
2018-08-10T09:30:16.196Z,100667.83
2018-08-10T09:32:45.377Z,100664.77
2018-08-10T09:35:14.900Z,100668.10
2018-08-10T09:37:44.203Z,100676.42
2018-08-10T09:40:15.472Z,100675.06
2018-08-10T09:42:45.110Z,100676.41
2018-08-10T09:45:15.026Z,100688.63
2018-08-10T09:47:46.197Z,100679.88
2018-08-10T09:50:16.159Z,100680.73
2018-08-10T09:52:51.932Z,100691.16
2018-08-10T09:55:24.881Z,100687.23
2018-08-10T09:57:56.327Z,100678.39
2018-08-10T10:00:30.697Z,100683.08
2018-08-10T10:03:05.141Z,100682.10
2018-08-10T10:05:34.403Z,100677.77
2018-08-10T10:08:03.348Z,100679.98
2018-08-10T10:10:32.297Z,100676.98
2018-08-10T10:13:01.306Z,100687.23
2018-08-10T10:15:30.469Z,100685.01
2018-08-10T10:17:59.462Z,100682.20
2018-08-10T10:20:28.416Z,100690.02
2018-08-10T10:22:57.741Z,100700.96
2018-08-10T10:25:26.712Z,100693.38
2018-08-10T10:27:55.641Z,100693.10
2018-08-10T10:30:24.900Z,100695.47
2018-08-10T10:32:53.934Z,100703.39
2018-08-10T10:35:22.941Z,100698.88
2018-08-10T10:37:52.596Z,100701.39
2018-08-10T10:40:21.556Z,100696.78
2018-08-10T10:42:50.666Z,100695.97
2018-08-10T10:45:19.792Z,100695.39
2018-08-10T10:47:48.959Z,100697.74
2018-08-10T10:50:18.725Z,100702.44
2018-08-10T10:52:47.980Z,100696.52
2018-08-10T10:55:16.968Z,100701.05
2018-08-10T10:57:46.131Z,100697.32
2018-08-10T11:00:16.632Z,100691.43
2018-08-10T11:02:46.836Z,100696.16
2018-08-10T11:05:15.808Z,100694.73
2018-08-10T11:07:45.045Z,100693.96
2018-08-10T11:10:16.019Z,100701.80
2018-08-10T11:12:44.968Z,100701.80
2018-08-10T11:15:14.201Z,100706.77
2018-08-10T11:17:43.141Z,100703.73
2018-08-10T11:20:12.804Z,100696.06
2018-08-10T11:22:42.246Z,100703.16
2018-08-10T11:25:12.707Z,100704.28
2018-08-10T11:27:42.333Z,100701.27
2018-08-10T11:30:11.483Z,100715.70
2018-08-10T11:32:40.841Z,100715.88
2018-08-10T11:35:10.230Z,100700.79
2018-08-10T11:37:39.182Z,100707.33
2018-08-10T11:40:11.793Z,100696.00
2018-08-10T11:45:18.504Z,100708.26
2018-08-10T11:47:47.585Z,100707.97
2018-08-10T11:50:16.539Z,100722.60
2018-08-10T11:52:45.535Z,100721.35
2018-08-10T11:55:15.204Z,100726.56
2018-08-10T11:57:44.607Z,100731.54
2018-08-10T12:00:14.832Z,100725.52
2018-08-10T12:02:44.050Z,100732.66
2018-08-10T12:05:13.963Z,100723.69
2018-08-10T12:07:42.955Z,100715.72
2018-08-10T12:10:11.950Z,100715.67
2018-08-10T12:12:41.100Z,100712.11
2018-08-10T12:15:11.981Z,100712.05
2018-08-10T12:17:40.981Z,100716.97
2018-08-10T12:20:10.685Z,100703.04
2018-08-10T12:22:40.688Z,100709.77
2018-08-10T12:25:09.659Z,100708.86
2018-08-10T12:27:38.752Z,100714.45
2018-08-10T12:30:09.513Z,100715.29
2018-08-10T12:32:38.480Z,100726.52
2018-08-10T12:35:08.149Z,100718.66
2018-08-10T12:37:37.218Z,100721.72
2018-08-10T12:40:06.463Z,100721.97
2018-08-10T12:42:35.427Z,100727.81
2018-08-10T12:45:04.576Z,100721.95
2018-08-10T12:47:33.905Z,100718.94
2018-08-10T12:50:02.945Z,100725.14
2018-08-10T12:52:31.993Z,100728.55
2018-08-10T12:55:01.863Z,100721.95
2018-08-10T12:57:31.004Z,100717.63
2018-08-10T12:59:59.979Z,100712.59
2018-08-10T13:02:28.968Z,100704.64
2018-08-10T13:04:57.860Z,100697.81
2018-08-10T13:07:26.863Z,100692.73
2018-08-10T13:09:55.862Z,100674.36
2018-08-10T13:12:24.842Z,100670.68
2018-08-10T13:14:53.939Z,100681.56
2018-08-10T13:17:23.153Z,100688.55
2018-08-10T13:19:52.124Z,100687.60
2018-08-10T13:22:21.180Z,100684.59
2018-08-10T13:24:56.686Z,100691.95
2018-08-10T13:27:46.916Z,100689.58
2018-08-10T13:30:18.495Z,100682.14
2018-08-10T13:32:47.488Z,100678.65
2018-08-10T13:35:16.596Z,100690.84
2018-08-10T13:37:45.818Z,100700.16
2018-08-10T13:40:14.976Z,100694.01
2018-08-10T13:42:43.929Z,100685.63
2018-08-10T13:45:14.035Z,100696.81
2018-08-10T13:47:43.560Z,100701.53
2018-08-10T13:50:14.680Z,100701.39
2018-08-10T13:52:43.677Z,100690.84
2018-08-10T13:55:15.119Z,100688.23
2018-08-10T13:57:44.265Z,100688.69
2018-08-10T14:00:22.686Z,100678.95
2018-08-10T14:02:53.290Z,100677.19
2018-08-10T14:05:23.207Z,100678.13
2018-08-10T14:07:53.042Z,100684.11
2018-08-10T14:10:21.999Z,100679.09
2018-08-10T14:12:50.941Z,100676.82
2018-08-10T14:15:19.880Z,100693.72
2018-08-10T14:17:49.743Z,100690.23
2018-08-10T14:20:20.171Z,100695.95
2018-08-10T14:22:49.322Z,100682.38
2018-08-10T14:25:18.339Z,100669.88
2018-08-10T14:27:47.321Z,100684.16
2018-08-10T14:30:16.828Z,100697.48
2018-08-10T14:32:45.979Z,100699.67
2018-08-10T14:35:15.077Z,100698.95
2018-08-10T14:37:45.251Z,100692.85
2018-08-10T14:40:14.553Z,100681.77
2018-08-10T14:42:43.564Z,100687.95
2018-08-10T14:45:13.987Z,100694.13
2018-08-10T14:47:45.817Z,100690.78
2018-08-10T14:50:36.950Z,100693.72
2018-08-10T14:53:06.011Z,100693.69
2018-08-10T14:55:36.668Z,100685.17
2018-08-10T14:58:08.309Z,100681.24
2018-08-10T15:00:37.557Z,100670.22
2018-08-10T15:03:06.759Z,100684.91
2018-08-10T15:05:35.752Z,100687.69
2018-08-10T15:08:05.311Z,100685.94
2018-08-10T15:10:34.663Z,100686.44
2018-08-10T15:13:03.812Z,100679.36
2018-08-10T15:15:32.570Z,100677.42
2018-08-10T15:18:03.764Z,100677.06
2018-08-10T15:20:34.528Z,100675.95
2018-08-10T15:23:03.531Z,100667.95
2018-08-10T15:25:32.470Z,100666.27
2018-08-10T15:28:01.499Z,100659.88
2018-08-10T15:30:30.579Z,100668.63
2018-08-10T15:32:59.596Z,100673.43
2018-08-10T15:35:28.923Z,100673.73
2018-08-10T15:37:57.908Z,100676.35
2018-08-10T15:40:26.847Z,100668.88
2018-08-10T15:42:55.970Z,100669.47
2018-08-10T15:45:24.997Z,100667.63
2018-08-10T15:47:53.985Z,100661.14
2018-08-10T15:50:22.975Z,100661.39
2018-08-10T15:52:52.068Z,100653.95
2018-08-10T15:55:21.352Z,100655.50
2018-08-10T15:57:50.295Z,100647.34
2018-08-10T16:00:22.619Z,100648.84
2018-08-10T16:02:51.576Z,100640.83
2018-08-10T16:05:20.548Z,100633.00
2018-08-10T16:07:50.037Z,100634.76
2018-08-10T16:10:19.003Z,100632.21
2018-08-10T16:12:49.092Z,100634.85
2018-08-10T16:15:19.446Z,100639.67
2018-08-10T16:17:48.414Z,100633.08
2018-08-10T16:20:20.072Z,100633.74
2018-08-10T16:22:49.235Z,100630.58
2018-08-10T16:25:18.165Z,100632.12
2018-08-10T16:27:47.089Z,100630.75
2018-08-10T16:30:16.787Z,100629.03
2018-08-10T16:32:46.373Z,100623.08
2018-08-10T16:35:15.793Z,100628.31
2018-08-10T16:37:45.913Z,100628.31
2018-08-10T16:40:16.338Z,100619.18
2018-08-10T16:42:45.317Z,100625.62
2018-08-10T16:45:14.872Z,100627.82
2018-08-10T16:47:44.273Z,100624.11
2018-08-10T16:50:15.303Z,100623.44
2018-08-10T16:52:44.804Z,100617.45
2018-08-10T16:55:18.501Z,100620.19
2018-08-10T16:57:48.008Z,100622.61
2018-08-10T17:00:20.334Z,100620.34
2018-08-10T17:02:49.565Z,100619.48
2018-08-10T17:05:18.551Z,100622.20
2018-08-10T17:07:47.476Z,100622.80
2018-08-10T17:10:16.489Z,100623.27
2018-08-10T17:12:45.952Z,100630.37
2018-08-10T17:15:17.391Z,100629.70
2018-08-10T17:17:49.442Z,100627.98
2018-08-10T17:20:20.445Z,100629.94
2018-08-10T17:22:49.543Z,100632.72
2018-08-10T17:25:19.943Z,100627.14
2018-08-10T17:27:48.976Z,100631.98
2018-08-10T17:30:19.264Z,100632.68
2018-08-10T17:32:49.263Z,100637.98
2018-08-10T17:35:18.690Z,100635.05
2018-08-10T17:37:48.889Z,100639.59
2018-08-10T17:40:21.967Z,100645.90
2018-08-10T17:42:51.143Z,100648.05
2018-08-10T17:45:22.482Z,100649.67
2018-08-10T17:47:52.215Z,100651.41
2018-08-10T17:50:22.542Z,100656.91
2018-08-10T17:52:53.799Z,100659.94
2018-08-10T17:55:23.557Z,100658.48
2018-08-10T17:57:52.630Z,100659.18
2018-08-10T18:00:24.528Z,100657.14
2018-08-10T18:02:53.595Z,100662.72
2018-08-10T18:05:22.790Z,100666.69
2018-08-10T18:07:52.522Z,100666.58
2018-08-10T18:10:21.720Z,100682.06
2018-08-10T18:12:50.941Z,100680.24
2018-08-10T18:15:20.733Z,100683.53
2018-08-10T18:17:50.040Z,100684.55
2018-08-10T18:20:22.912Z,100681.15
2018-08-10T18:22:57.974Z,100686.47
2018-08-10T18:25:29.327Z,100683.30
2018-08-10T18:27:58.583Z,100677.46
2018-08-10T18:30:29.057Z,100685.29
2018-08-10T18:32:58.026Z,100684.47
2018-08-10T18:35:26.996Z,100685.63
2018-08-10T18:37:55.917Z,100687.20
2018-08-10T18:40:25.010Z,100693.34
2018-08-10T18:42:53.971Z,100695.58
2018-08-10T18:45:22.969Z,100692.85
2018-08-10T18:47:51.932Z,100703.83
2018-08-10T18:50:25.578Z,100696.23
2018-08-10T18:52:55.792Z,100693.47
2018-08-10T18:55:24.893Z,100700.25
2018-08-10T18:57:54.012Z,100699.09
2018-08-10T19:00:24.704Z,100706.59
2018-08-10T19:02:54.606Z,100707.59
2018-08-10T19:05:23.561Z,100709.27
2018-08-10T19:07:52.489Z,100705.64
2018-08-10T19:10:23.927Z,100706.06
2018-08-10T19:12:52.867Z,100715.92
2018-08-10T19:15:21.897Z,100719.89
2018-08-10T19:17:51.047Z,100715.34
2018-08-10T19:20:21.212Z,100722.33
2018-08-10T19:22:51.963Z,100720.24
2018-08-10T19:25:21.201Z,100723.64
2018-08-10T19:27:51.228Z,100723.64
2018-08-10T19:30:21.928Z,100721.91
2018-08-10T19:32:50.915Z,100723.73
2018-08-10T19:35:20.103Z,100726.31
2018-08-10T19:37:49.056Z,100726.41
2018-08-10T19:40:19.089Z,100726.61
2018-08-10T19:42:48.424Z,100728.95
2018-08-10T19:45:18.248Z,100732.09
2018-08-10T19:47:47.356Z,100735.39
2018-08-10T19:50:17.240Z,100735.11
2018-08-10T19:52:47.224Z,100730.66
2018-08-10T19:55:16.609Z,100739.27
2018-08-10T19:57:45.746Z,100735.91
2018-08-10T20:00:16.403Z,100735.53
2018-08-10T20:02:47.915Z,100738.86
2018-08-10T20:05:17.217Z,100741.86
2018-08-10T20:07:46.501Z,100736.28
2018-08-10T20:10:15.968Z,100738.53
2018-08-10T20:12:45.364Z,100732.52
2018-08-10T20:15:15.645Z,100740.54
2018-08-10T20:17:44.715Z,100735.59
2018-08-10T20:20:15.544Z,100739.38
2018-08-10T20:22:44.864Z,100736.27
2018-08-10T20:25:14.483Z,100739.00
2018-08-10T20:27:43.451Z,100734.45
2018-08-10T20:30:15.665Z,100734.88
2018-08-10T20:32:45.307Z,100734.05
2018-08-10T20:35:15.892Z,100728.79
2018-08-10T20:37:44.879Z,100725.50
2018-08-10T20:40:15.944Z,100722.74
2018-08-10T20:42:44.886Z,100725.23
2018-08-10T20:45:14.084Z,100728.66
2018-08-10T20:47:43.354Z,100723.96
2018-08-10T20:50:14.771Z,100720.28
2018-08-10T20:52:44.418Z,100721.02
2018-08-10T20:55:13.475Z,100728.12
2018-08-10T20:57:42.788Z,100723.64
2018-08-10T21:00:12.009Z,100721.80
2018-08-10T21:02:42.662Z,100724.03
2018-08-10T21:05:12.259Z,100725.78
2018-08-10T21:07:41.291Z,100726.40
2018-08-10T21:10:12.607Z,100723.84
2018-08-10T21:12:42.647Z,100717.54
2018-08-10T21:15:12.904Z,100719.77
2018-08-10T21:17:42.746Z,100715.95
2018-08-10T21:20:13.015Z,100720.83
2018-08-10T21:22:42.090Z,100721.23
2018-08-10T21:25:11.957Z,100717.54
2018-08-10T21:27:41.705Z,100716.58
2018-08-10T21:30:16.082Z,100709.64
2018-08-10T21:32:45.132Z,100710.09
2018-08-10T21:35:14.099Z,100708.89
2018-08-10T21:37:43.239Z,100711.52
2018-08-10T21:40:12.654Z,100712.61
2018-08-10T21:42:42.588Z,100716.58
2018-08-10T21:45:11.573Z,100726.03
2018-08-10T21:47:40.604Z,100721.66
2018-08-10T21:50:13.379Z,100723.12
2018-08-10T21:52:43.201Z,100729.03
2018-08-10T21:55:12.592Z,100738.11
2018-08-10T21:57:41.944Z,100744.66
2018-08-10T22:00:20.130Z,100740.83
2018-08-10T22:02:49.273Z,100735.47
2018-08-10T22:05:18.210Z,100734.03
2018-08-10T22:07:47.161Z,100736.31
2018-08-10T22:10:16.120Z,100729.77
2018-08-10T22:12:48.671Z,100740.88
2018-08-10T22:15:23.227Z,100734.03
2018-08-10T22:17:57.659Z,100730.95
2018-08-10T22:20:26.620Z,100729.26
2018-08-10T22:22:55.796Z,100735.55
2018-08-10T22:25:24.824Z,100740.05
2018-08-10T22:27:54.287Z,100747.23
2018-08-10T22:30:23.501Z,100747.30
2018-08-10T22:32:52.724Z,100746.80
2018-08-10T22:35:21.903Z,100744.03
2018-08-10T22:37:50.894Z,100745.95
2018-08-10T22:40:20.147Z,100749.29
2018-08-10T22:42:49.109Z,100751.87
2018-08-10T22:45:18.397Z,100741.73
2018-08-10T22:47:49.492Z,100742.95
2018-08-10T22:50:20.352Z,100752.00
2018-08-10T22:52:49.309Z,100751.77
2018-08-10T22:55:18.288Z,100744.86
2018-08-10T22:57:47.284Z,100745.16
2018-08-10T23:00:16.364Z,100742.95
2018-08-10T23:02:45.305Z,100740.36
2018-08-10T23:05:14.282Z,100736.80
2018-08-10T23:07:43.238Z,100743.87
2018-08-10T23:10:13.228Z,100735.57
2018-08-10T23:12:42.509Z,100732.55
2018-08-10T23:15:11.825Z,100731.86
2018-08-10T23:17:41.466Z,100729.15
2018-08-10T23:20:12.888Z,100724.16
2018-08-10T23:22:41.870Z,100721.24
2018-08-10T23:25:12.823Z,100720.74
2018-08-10T23:27:42.966Z,100721.95
2018-08-10T23:30:16.132Z,100724.13
2018-08-10T23:32:45.645Z,100722.28
2018-08-10T23:35:14.740Z,100718.63
2018-08-10T23:37:43.904Z,100722.98
2018-08-10T23:40:13.959Z,100718.02
2018-08-10T23:42:43.381Z,100717.75
2018-08-10T23:45:13.414Z,100719.40
2018-08-10T23:47:43.057Z,100723.78
2018-08-10T23:50:13.848Z,100723.22
2018-08-10T23:52:43.140Z,100725.88
2018-08-10T23:55:12.765Z,100727.23
2018-08-10T23:57:42.055Z,100724.73
